createdAt,value
2015-07-18T00:00:03.433Z,0
2015-07-18T00:00:21.826Z,0
2015-07-18T00:00:40.310Z,0
2015-07-18T00:00:58.670Z,0
2015-07-18T00:01:17.187Z,0
2015-07-18T00:01:35.640Z,0
2015-07-18T00:01:54.078Z,0
2015-07-18T00:02:12.549Z,0
2015-07-18T00:02:31.080Z,0
2015-07-18T00:02:49.470Z,0
2015-07-18T00:03:08.314Z,0
2015-07-18T00:03:26.878Z,0
2015-07-18T00:03:45.300Z,0
2015-07-18T00:04:03.784Z,0
2015-07-18T00:04:22.349Z,0
2015-07-18T00:04:40.818Z,0
2015-07-18T00:04:59.193Z,0
2015-07-18T00:05:17.586Z,0
2015-07-18T00:05:36.008Z,0
2015-07-18T00:05:54.414Z,0
2015-07-18T00:06:12.836Z,0
2015-07-18T00:06:31.228Z,0
2015-07-18T00:06:49.182Z,0
2015-07-18T00:07:07.635Z,0
2015-07-18T00:07:26.184Z,0
2015-07-18T00:07:44.574Z,0
2015-07-18T00:08:03.027Z,0
2015-07-18T00:08:21.420Z,0
2015-07-18T00:08:40.357Z,0
2015-07-18T00:08:58.936Z,0
2015-07-18T00:09:17.357Z,0
2015-07-18T00:09:35.922Z,0
2015-07-18T00:09:54.516Z,0
2015-07-18T00:10:12.906Z,0
2015-07-18T00:10:31.454Z,0
2015-07-18T00:10:49.329Z,0
2015-07-18T00:11:08.032Z,0
2015-07-18T00:11:26.473Z,0
2015-07-18T00:11:44.926Z,0
2015-07-18T00:12:03.488Z,0
2015-07-18T00:12:22.270Z,0
2015-07-18T00:12:40.833Z,0
2015-07-18T00:12:59.193Z,0
2015-07-18T00:13:17.958Z,0
2015-07-18T00:13:36.414Z,0
2015-07-18T00:13:54.883Z,0
2015-07-18T00:14:13.289Z,0
2015-07-18T00:14:31.729Z,0
2015-07-18T00:14:50.135Z,0
2015-07-18T00:15:08.698Z,0
2015-07-18T00:15:27.088Z,0
2015-07-18T00:15:45.652Z,0
2015-07-18T00:16:04.074Z,0
2015-07-18T00:16:22.542Z,0
2015-07-18T00:16:40.951Z,0
2015-07-18T00:16:59.560Z,0
2015-07-18T00:17:18.029Z,0
2015-07-18T00:17:36.407Z,0
2015-07-18T00:17:55.016Z,0
2015-07-18T00:18:13.391Z,0
2015-07-18T00:18:31.768Z,0
2015-07-18T00:18:50.549Z,0
2015-07-18T00:19:09.127Z,0
2015-07-18T00:19:27.721Z,0
2015-07-18T00:19:46.191Z,0
2015-07-18T00:20:04.691Z,0
2015-07-18T00:20:23.066Z,0
2015-07-18T00:20:41.521Z,0
2015-07-18T00:20:59.943Z,0
2015-07-18T00:21:18.521Z,0
2015-07-18T00:21:36.930Z,0
2015-07-18T00:21:55.337Z,0
2015-07-18T00:22:13.852Z,0
2015-07-18T00:22:32.493Z,0
2015-07-18T00:22:51.072Z,0
2015-07-18T00:23:09.494Z,0
2015-07-18T00:23:27.869Z,0
2015-07-18T00:23:46.418Z,0
2015-07-18T00:24:04.886Z,0
2015-07-18T00:24:23.308Z,0
2015-07-18T00:24:41.701Z,0
2015-07-18T00:25:00.076Z,0
2015-07-18T00:25:17.857Z,0
2015-07-18T00:25:36.342Z,0
2015-07-18T00:25:54.703Z,0
2015-07-18T00:26:13.125Z,0
2015-07-18T00:26:31.562Z,0
2015-07-18T00:26:50.049Z,0
2015-07-18T00:27:08.502Z,0
2015-07-18T00:27:26.892Z,0
2015-07-18T00:27:45.254Z,0
2015-07-18T00:28:03.816Z,0
2015-07-18T00:28:22.504Z,0
2015-07-18T00:28:41.098Z,0
2015-07-18T00:28:59.740Z,0
2015-07-18T00:29:18.381Z,0
2015-07-18T00:29:36.771Z,0
2015-07-18T00:29:55.180Z,0
2015-07-18T00:30:13.586Z,0
2015-07-18T00:30:31.961Z,0
2015-07-18T00:30:50.493Z,0
2015-07-18T00:31:09.009Z,0
2015-07-18T00:31:27.478Z,0
2015-07-18T00:31:45.837Z,0
2015-07-18T00:32:04.277Z,0
2015-07-18T00:32:22.699Z,0
2015-07-18T00:32:41.074Z,0
2015-07-18T00:32:59.576Z,0
2015-07-18T00:33:17.936Z,0
2015-07-18T00:33:36.654Z,0
2015-07-18T00:33:55.313Z,0
2015-07-18T00:34:13.766Z,0
2015-07-18T00:34:32.266Z,0
2015-07-18T00:34:50.735Z,0
2015-07-18T00:35:09.157Z,0
2015-07-18T00:35:27.657Z,0
2015-07-18T00:35:46.142Z,0
2015-07-18T00:36:04.598Z,0
2015-07-18T00:36:23.332Z,0
2015-07-18T00:36:41.848Z,0
2015-07-18T00:37:00.256Z,0
2015-07-18T00:37:18.725Z,0
2015-07-18T00:37:37.100Z,0
2015-07-18T00:37:55.616Z,0
2015-07-18T00:38:14.024Z,0
2015-07-18T00:38:32.477Z,0
2015-07-18T00:38:50.836Z,0
2015-07-18T00:39:09.347Z,0
2015-07-18T00:39:27.706Z,0
2015-07-18T00:39:46.175Z,0
2015-07-18T00:40:04.748Z,0
2015-07-18T00:40:23.123Z,0
2015-07-18T00:40:40.952Z,0
2015-07-18T00:40:59.530Z,0
2015-07-18T00:41:17.979Z,0
2015-07-18T00:41:36.448Z,0
2015-07-18T00:41:54.870Z,0
2015-07-18T00:42:13.506Z,0
2015-07-18T00:42:32.178Z,0
2015-07-18T00:42:50.100Z,0
2015-07-18T00:43:08.579Z,0
2015-07-18T00:43:27.063Z,0
2015-07-18T00:43:45.422Z,0
2015-07-18T00:44:03.813Z,0
2015-07-18T00:44:22.188Z,0
2015-07-18T00:44:41.032Z,0
2015-07-18T00:44:59.391Z,0
2015-07-18T00:45:17.987Z,0
2015-07-18T00:45:36.346Z,0
2015-07-18T00:45:54.768Z,0
2015-07-18T00:46:13.238Z,0
2015-07-18T00:46:32.894Z,0
2015-07-18T00:46:51.300Z,0
2015-07-18T00:47:09.896Z,0
2015-07-18T00:47:28.271Z,0
2015-07-18T00:47:46.724Z,0
2015-07-18T00:48:05.208Z,0
2015-07-18T00:48:23.067Z,0
2015-07-18T00:48:41.457Z,0
2015-07-18T00:49:00.098Z,0
2015-07-18T00:49:18.543Z,0
2015-07-18T00:49:37.043Z,0
2015-07-18T00:49:55.668Z,0
2015-07-18T00:50:14.238Z,0
2015-07-18T00:50:32.738Z,0
2015-07-18T00:50:51.316Z,0
2015-07-18T00:51:09.707Z,0
2015-07-18T00:51:28.370Z,0
2015-07-18T00:51:46.839Z,0
2015-07-18T00:52:05.245Z,0
2015-07-18T00:52:23.706Z,0
2015-07-18T00:52:42.159Z,0
2015-07-18T00:53:00.534Z,0
2015-07-18T00:53:18.978Z,0
2015-07-18T00:53:37.431Z,0
2015-07-18T00:53:56.025Z,0
2015-07-18T00:54:14.697Z,0
2015-07-18T00:54:33.091Z,0
2015-07-18T00:54:51.701Z,0
2015-07-18T00:55:10.076Z,0
2015-07-18T00:55:28.439Z,0
2015-07-18T00:55:47.017Z,0
2015-07-18T00:56:05.486Z,0
2015-07-18T00:56:23.927Z,0
2015-07-18T00:56:42.552Z,0
2015-07-18T00:57:00.959Z,0
2015-07-18T00:57:19.334Z,0
2015-07-18T00:57:37.869Z,0
2015-07-18T00:57:56.275Z,0
2015-07-18T00:58:15.088Z,0
2015-07-18T00:58:33.622Z,0
2015-07-18T00:58:52.028Z,0
2015-07-18T00:59:10.512Z,0
2015-07-18T00:59:29.094Z,0
2015-07-18T00:59:47.453Z,0
2015-07-18T01:00:06.015Z,0
2015-07-18T01:00:24.469Z,0
2015-07-18T01:00:42.876Z,0
2015-07-18T01:01:01.266Z,0
2015-07-18T01:01:19.782Z,0
2015-07-18T01:01:37.582Z,0
2015-07-18T01:01:55.973Z,0
2015-07-18T01:02:14.348Z,0
2015-07-18T01:02:32.757Z,0
2015-07-18T01:02:51.163Z,0
2015-07-18T01:03:09.569Z,0
2015-07-18T01:03:28.101Z,0
2015-07-18T01:03:46.478Z,0
2015-07-18T01:04:05.024Z,0
2015-07-18T01:04:23.431Z,0
2015-07-18T01:04:41.198Z,0
2015-07-18T01:04:59.776Z,0
2015-07-18T01:05:18.136Z,0
2015-07-18T01:05:36.717Z,0
2015-07-18T01:05:55.264Z,0
2015-07-18T01:06:13.639Z,0
2015-07-18T01:06:32.029Z,0
2015-07-18T01:06:50.469Z,0
2015-07-18T01:07:09.031Z,0
2015-07-18T01:07:27.391Z,0
2015-07-18T01:07:45.769Z,0
2015-07-18T01:08:04.347Z,0
2015-07-18T01:08:22.753Z,0
2015-07-18T01:08:41.130Z,0
2015-07-18T01:08:59.615Z,0
2015-07-18T01:09:18.083Z,0
2015-07-18T01:09:36.443Z,0
2015-07-18T01:09:54.819Z,0
2015-07-18T01:10:13.241Z,0
2015-07-18T01:10:31.600Z,0
2015-07-18T01:10:50.040Z,0
2015-07-18T01:11:08.478Z,0
2015-07-18T01:11:26.869Z,0
2015-07-18T01:11:45.230Z,0
2015-07-18T01:12:03.621Z,0
2015-07-18T01:12:22.246Z,0
2015-07-18T01:12:40.605Z,0
2015-07-18T01:12:59.107Z,0
2015-07-18T01:13:17.591Z,0
2015-07-18T01:13:36.013Z,0
2015-07-18T01:13:54.545Z,0
2015-07-18T01:14:12.952Z,0
2015-07-18T01:14:31.374Z,0
2015-07-18T01:14:49.782Z,0
2015-07-18T01:15:08.282Z,0
2015-07-18T01:15:26.766Z,0
2015-07-18T01:15:45.157Z,0
2015-07-18T01:16:03.549Z,0
2015-07-18T01:16:22.034Z,0
2015-07-18T01:16:40.565Z,0
2015-07-18T01:16:59.270Z,0
2015-07-18T01:17:17.692Z,0
2015-07-18T01:17:36.114Z,0
2015-07-18T01:17:54.460Z,0
2015-07-18T01:18:12.882Z,0
2015-07-18T01:18:31.366Z,0
2015-07-18T01:18:49.741Z,0
2015-07-18T01:19:08.118Z,0
2015-07-18T01:19:26.509Z,0
2015-07-18T01:19:45.134Z,0
2015-07-18T01:20:03.698Z,0
2015-07-18T01:20:21.636Z,0
2015-07-18T01:20:40.182Z,0
2015-07-18T01:20:58.591Z,0
2015-07-18T01:21:17.153Z,0
2015-07-18T01:21:35.559Z,0
2015-07-18T01:21:53.997Z,0
2015-07-18T01:22:12.436Z,0
2015-07-18T01:22:30.858Z,0
2015-07-18T01:22:49.436Z,0
2015-07-18T01:23:08.032Z,0
2015-07-18T01:23:26.470Z,0
2015-07-18T01:23:44.892Z,0
2015-07-18T01:24:03.347Z,0
2015-07-18T01:24:21.925Z,0
2015-07-18T01:24:40.362Z,0
2015-07-18T01:24:58.771Z,0
2015-07-18T01:25:17.208Z,0
2015-07-18T01:25:35.864Z,0
2015-07-18T01:25:54.427Z,0
2015-07-18T01:26:12.835Z,0
2015-07-18T01:26:31.413Z,0
2015-07-18T01:26:49.866Z,0
2015-07-18T01:27:08.696Z,0
2015-07-18T01:27:27.196Z,0
2015-07-18T01:27:45.571Z,0
2015-07-18T01:28:04.166Z,0
2015-07-18T01:28:22.541Z,0
2015-07-18T01:28:41.151Z,0
2015-07-18T01:28:59.619Z,0
2015-07-18T01:29:18.341Z,0
2015-07-18T01:29:36.763Z,0
2015-07-18T01:29:55.232Z,0
2015-07-18T01:30:13.734Z,0
2015-07-18T01:30:32.406Z,0
2015-07-18T01:30:50.999Z,0
2015-07-18T01:31:09.595Z,0
2015-07-18T01:31:27.970Z,0
2015-07-18T01:31:46.423Z,0
2015-07-18T01:32:04.971Z,0
2015-07-18T01:32:23.565Z,0
2015-07-18T01:32:42.112Z,0
2015-07-18T01:33:00.690Z,0
2015-07-18T01:33:19.177Z,0
2015-07-18T01:33:37.630Z,0
2015-07-18T01:33:56.037Z,0
2015-07-18T01:34:14.539Z,0
2015-07-18T01:34:32.992Z,0
2015-07-18T01:34:51.398Z,0
2015-07-18T01:35:09.993Z,0
2015-07-18T01:35:28.430Z,0
2015-07-18T01:35:46.993Z,0
2015-07-18T01:36:05.493Z,0
2015-07-18T01:36:23.979Z,0
2015-07-18T01:36:42.354Z,0
2015-07-18T01:37:00.885Z,0
2015-07-18T01:37:19.481Z,0
2015-07-18T01:37:37.887Z,0
2015-07-18T01:37:56.262Z,0
2015-07-18T01:38:14.889Z,0
2015-07-18T01:38:33.358Z,0
2015-07-18T01:38:51.827Z,0
2015-07-18T01:39:10.702Z,0
2015-07-18T01:39:29.094Z,0
2015-07-18T01:39:47.594Z,0
2015-07-18T01:40:06.407Z,0
2015-07-18T01:40:24.831Z,0
2015-07-18T01:40:43.206Z,0
2015-07-18T01:41:01.690Z,0
2015-07-18T01:41:20.208Z,0
2015-07-18T01:41:38.598Z,0
2015-07-18T01:41:57.020Z,0
2015-07-18T01:42:15.552Z,0
2015-07-18T01:42:33.975Z,0
2015-07-18T01:42:52.507Z,0
2015-07-18T01:43:10.272Z,0
2015-07-18T01:43:29.041Z,0
2015-07-18T01:43:47.557Z,0
2015-07-18T01:44:05.416Z,0
2015-07-18T01:44:23.245Z,0
2015-07-18T01:44:41.823Z,0
2015-07-18T01:45:00.417Z,0
2015-07-18T01:45:18.854Z,0
2015-07-18T01:45:37.216Z,0
2015-07-18T01:45:55.825Z,0
2015-07-18T01:46:14.247Z,0
2015-07-18T01:46:32.671Z,0
2015-07-18T01:46:51.249Z,0
2015-07-18T01:47:09.687Z,0
2015-07-18T01:47:28.141Z,0
2015-07-18T01:47:46.813Z,0
2015-07-18T01:48:05.266Z,0
2015-07-18T01:48:23.750Z,0
2015-07-18T01:48:41.611Z,0
2015-07-18T01:48:59.971Z,0
2015-07-18T01:49:18.346Z,0
2015-07-18T01:49:36.755Z,0
2015-07-18T01:49:55.130Z,0
2015-07-18T01:50:13.614Z,0
2015-07-18T01:50:32.195Z,0
2015-07-18T01:50:50.710Z,0
2015-07-18T01:51:08.663Z,0
2015-07-18T01:51:27.025Z,0
2015-07-18T01:51:45.650Z,0
2015-07-18T01:52:04.150Z,0
2015-07-18T01:52:22.665Z,0
2015-07-18T01:52:41.542Z,0
2015-07-18T01:53:00.214Z,0
2015-07-18T01:53:18.730Z,0
2015-07-18T01:53:37.231Z,0
2015-07-18T01:53:55.778Z,0
2015-07-18T01:54:14.246Z,0
2015-07-18T01:54:32.703Z,0
2015-07-18T01:54:51.359Z,0
2015-07-18T01:55:09.109Z,0
2015-07-18T01:55:27.593Z,0
2015-07-18T01:55:46.173Z,0
2015-07-18T01:56:04.673Z,0
2015-07-18T01:56:23.330Z,0
2015-07-18T01:56:41.799Z,0
2015-07-18T01:57:00.174Z,0
2015-07-18T01:57:18.846Z,0
2015-07-18T01:57:37.270Z,0
2015-07-18T01:57:55.973Z,0
2015-07-18T01:58:14.442Z,0
2015-07-18T01:58:32.942Z,0
2015-07-18T01:58:51.586Z,0
2015-07-18T01:59:10.023Z,0
2015-07-18T01:59:28.445Z,0
2015-07-18T01:59:46.852Z,0
2015-07-18T02:00:05.227Z,0
2015-07-18T02:00:23.649Z,0
2015-07-18T02:00:42.073Z,0
2015-07-18T02:01:00.557Z,0
2015-07-18T02:01:18.917Z,0
2015-07-18T02:01:37.434Z,0
2015-07-18T02:01:55.919Z,0
2015-07-18T02:02:14.481Z,0
2015-07-18T02:02:33.091Z,0
2015-07-18T02:02:51.671Z,0
2015-07-18T02:03:10.108Z,0
2015-07-18T02:03:28.639Z,0
2015-07-18T02:03:47.204Z,0
2015-07-18T02:04:05.688Z,0
2015-07-18T02:04:24.063Z,0
2015-07-18T02:04:42.503Z,0
2015-07-18T02:05:00.487Z,0
2015-07-18T02:05:18.862Z,0
2015-07-18T02:05:37.284Z,0
2015-07-18T02:05:55.677Z,0
2015-07-18T02:06:14.145Z,0
2015-07-18T02:06:32.520Z,0
2015-07-18T02:06:51.132Z,0
2015-07-18T02:07:09.491Z,0
2015-07-18T02:07:28.069Z,0
2015-07-18T02:07:45.790Z,0
2015-07-18T02:08:04.337Z,0
2015-07-18T02:08:22.868Z,0
2015-07-18T02:08:41.290Z,0
2015-07-18T02:08:59.745Z,0
2015-07-18T02:09:18.323Z,0
2015-07-18T02:09:36.698Z,0
2015-07-18T02:09:55.200Z,0
2015-07-18T02:10:13.872Z,0
2015-07-18T02:10:32.341Z,0
2015-07-18T02:10:51.030Z,0
2015-07-18T02:11:09.421Z,0
2015-07-18T02:11:27.202Z,0
2015-07-18T02:11:45.577Z,0
2015-07-18T02:12:03.986Z,0
2015-07-18T02:12:22.361Z,0
2015-07-18T02:12:40.736Z,0
2015-07-18T02:12:59.113Z,0
2015-07-18T02:13:17.488Z,0
2015-07-18T02:13:35.894Z,0
2015-07-18T02:13:54.269Z,0
2015-07-18T02:14:12.630Z,0
2015-07-18T02:14:31.130Z,0
2015-07-18T02:14:49.536Z,0
2015-07-18T02:15:07.960Z,0
2015-07-18T02:15:26.413Z,0
2015-07-18T02:15:44.992Z,0
2015-07-18T02:16:03.462Z,0
2015-07-18T02:16:21.884Z,0
2015-07-18T02:16:40.353Z,0
2015-07-18T02:16:58.837Z,0
2015-07-18T02:17:17.417Z,0
2015-07-18T02:17:36.058Z,0
2015-07-18T02:17:53.808Z,0
2015-07-18T02:18:12.200Z,0
2015-07-18T02:18:30.856Z,0
2015-07-18T02:18:49.528Z,0
2015-07-18T02:19:07.968Z,0
2015-07-18T02:19:26.359Z,0
2015-07-18T02:19:44.812Z,0
2015-07-18T02:20:03.218Z,0
2015-07-18T02:20:21.642Z,0
2015-07-18T02:20:40.080Z,0
2015-07-18T02:20:58.595Z,0
2015-07-18T02:21:16.957Z,0
2015-07-18T02:21:34.925Z,0
2015-07-18T02:21:53.300Z,0
2015-07-18T02:22:11.693Z,0
2015-07-18T02:22:30.115Z,0
2015-07-18T02:22:48.552Z,0
2015-07-18T02:23:07.068Z,0
2015-07-18T02:23:25.507Z,0
2015-07-18T02:23:43.913Z,0
2015-07-18T02:24:02.382Z,0
2015-07-18T02:24:20.853Z,0
2015-07-18T02:24:39.306Z,0
2015-07-18T02:24:57.697Z,0
2015-07-18T02:25:16.074Z,0
2015-07-18T02:25:34.480Z,0
2015-07-18T02:25:52.887Z,0
2015-07-18T02:26:11.277Z,0
2015-07-18T02:26:29.654Z,0
2015-07-18T02:26:48.514Z,0
2015-07-18T02:27:07.029Z,0
2015-07-18T02:27:25.483Z,0
2015-07-18T02:27:43.952Z,0
2015-07-18T02:28:02.421Z,0
2015-07-18T02:28:20.798Z,0
2015-07-18T02:28:39.298Z,0
2015-07-18T02:28:57.688Z,0
2015-07-18T02:29:16.110Z,0
2015-07-18T02:29:34.535Z,0
2015-07-18T02:29:52.910Z,0
2015-07-18T02:30:11.535Z,0
2015-07-18T02:30:29.958Z,0
2015-07-18T02:30:48.317Z,0
2015-07-18T02:31:06.927Z,0
2015-07-18T02:31:25.524Z,0
2015-07-18T02:31:43.914Z,0
2015-07-18T02:32:02.274Z,0
2015-07-18T02:32:20.664Z,0
2015-07-18T02:32:39.181Z,0
2015-07-18T02:32:57.571Z,0
2015-07-18T02:33:16.275Z,0
2015-07-18T02:33:34.698Z,0
2015-07-18T02:33:52.511Z,0
2015-07-18T02:34:10.933Z,0
2015-07-18T02:34:29.373Z,0
2015-07-18T02:34:47.811Z,0
2015-07-18T02:35:06.186Z,0
2015-07-18T02:35:24.624Z,0
2015-07-18T02:35:43.062Z,0
2015-07-18T02:36:01.718Z,0
2015-07-18T02:36:20.281Z,0
2015-07-18T02:36:38.986Z,0
2015-07-18T02:36:57.689Z,0
2015-07-18T02:37:16.095Z,0
2015-07-18T02:37:34.581Z,0
2015-07-18T02:37:53.113Z,0
2015-07-18T02:38:11.691Z,0
2015-07-18T02:38:30.177Z,0
2015-07-18T02:38:48.865Z,0
2015-07-18T02:39:07.818Z,1
2015-07-18T02:39:26.599Z,1
2015-07-18T02:39:45.023Z,1
2015-07-18T02:40:03.617Z,1
2015-07-18T02:40:22.085Z,1
2015-07-18T02:40:40.586Z,1
2015-07-18T02:40:58.961Z,1
2015-07-18T02:41:17.508Z,1
2015-07-18T02:41:35.918Z,1
2015-07-18T02:41:54.293Z,1
2015-07-18T02:42:12.699Z,1
2015-07-18T02:42:31.214Z,1
2015-07-18T02:42:49.857Z,1
2015-07-18T02:43:08.263Z,2
2015-07-18T02:43:26.779Z,2
2015-07-18T02:44:04.468Z,2
2015-07-18T02:44:23.062Z,2
2015-07-18T02:44:41.752Z,2
2015-07-18T02:45:00.142Z,2
2015-07-18T02:45:18.549Z,3
2015-07-18T02:45:36.941Z,3
2015-07-18T02:45:55.426Z,3
2015-07-18T02:46:13.988Z,3
2015-07-18T02:46:32.410Z,4
2015-07-18T02:46:50.771Z,4
2015-07-18T02:47:09.209Z,4
2015-07-18T02:47:27.615Z,4
2015-07-18T02:47:46.116Z,4
2015-07-18T02:48:04.804Z,5
2015-07-18T02:48:23.163Z,5
2015-07-18T02:48:41.853Z,5
2015-07-18T02:49:00.635Z,6
2015-07-18T02:49:19.010Z,6
2015-07-18T02:49:37.400Z,7
2015-07-18T02:49:55.840Z,7
2015-07-18T02:50:14.309Z,7
2015-07-18T02:50:32.793Z,8
2015-07-18T02:50:51.185Z,8
2015-07-18T02:51:09.685Z,8
2015-07-18T02:51:28.247Z,9
2015-07-18T02:51:46.671Z,9
2015-07-18T02:52:05.093Z,10
2015-07-18T02:52:23.562Z,10
2015-07-18T02:52:42.171Z,10
2015-07-18T02:53:00.690Z,11
2015-07-18T02:53:19.127Z,11
2015-07-18T02:53:37.533Z,12
2015-07-18T02:53:55.909Z,13
2015-07-18T02:54:14.331Z,13
2015-07-18T02:54:32.909Z,14
2015-07-18T02:54:51.552Z,14
2015-07-18T02:55:09.927Z,15
2015-07-18T02:55:28.552Z,16
2015-07-18T02:55:47.052Z,17
2015-07-18T02:56:05.727Z,18
2015-07-18T02:56:24.258Z,19
2015-07-18T02:56:42.696Z,20
2015-07-18T02:57:01.151Z,21
2015-07-18T02:57:19.760Z,22
2015-07-18T02:57:38.401Z,23
2015-07-18T02:57:56.856Z,24
2015-07-18T02:58:15.246Z,25
2015-07-18T02:58:33.715Z,26
2015-07-18T02:58:52.231Z,28
2015-07-18T02:59:10.654Z,29
2015-07-18T02:59:29.497Z,31
2015-07-18T02:59:48.169Z,32
2015-07-18T03:00:06.609Z,34
2015-07-18T03:00:25.171Z,35
2015-07-18T03:00:43.656Z,37
2015-07-18T03:01:02.251Z,38
2015-07-18T03:01:20.845Z,40
2015-07-18T03:01:39.251Z,42
2015-07-18T03:01:57.800Z,44
2015-07-18T03:02:16.550Z,46
2015-07-18T03:02:35.066Z,48
2015-07-18T03:02:53.457Z,50
2015-07-18T03:03:11.943Z,52
2015-07-18T03:03:30.318Z,54
2015-07-18T03:03:48.865Z,57
2015-07-18T03:04:07.304Z,59
2015-07-18T03:04:25.679Z,62
2015-07-18T03:04:44.226Z,64
2015-07-18T03:05:02.681Z,67
2015-07-18T03:05:21.150Z,70
2015-07-18T03:05:39.759Z,73
2015-07-18T03:05:58.291Z,76
2015-07-18T03:06:16.699Z,79
2015-07-18T03:06:34.668Z,82
2015-07-18T03:06:53.136Z,85
2015-07-18T03:07:11.513Z,89
2015-07-18T03:07:29.998Z,92
2015-07-18T03:07:48.388Z,96
2015-07-18T03:08:06.844Z,99
2015-07-18T03:08:24.844Z,103
2015-07-18T03:08:43.250Z,107
2015-07-18T03:09:01.734Z,111
2015-07-18T03:09:20.221Z,115
2015-07-18T03:09:38.674Z,119
2015-07-18T03:09:57.096Z,123
2015-07-18T03:10:15.613Z,127
2015-07-18T03:10:34.316Z,132
2015-07-18T03:10:52.754Z,135
2015-07-18T03:11:11.130Z,140
2015-07-18T03:11:29.630Z,146
2015-07-18T03:11:48.052Z,150
2015-07-18T03:12:06.489Z,154
2015-07-18T03:12:25.070Z,159
2015-07-18T03:12:43.539Z,163
2015-07-18T03:13:02.086Z,168
2015-07-18T03:13:20.510Z,174
2015-07-18T03:13:38.885Z,178
2015-07-18T03:13:57.354Z,183
2015-07-18T03:14:15.746Z,189
2015-07-18T03:14:34.137Z,193
2015-07-18T03:14:52.559Z,198
2015-07-18T03:15:11.012Z,203
2015-07-18T03:15:29.247Z,209
2015-07-18T03:15:47.888Z,213
2015-07-18T03:16:06.435Z,219
2015-07-18T03:16:24.875Z,224
2015-07-18T03:16:43.391Z,229
2015-07-18T03:17:02.141Z,234
2015-07-18T03:17:20.611Z,239
2015-07-18T03:17:39.142Z,243
2015-07-18T03:17:57.532Z,248
2015-07-18T03:18:16.079Z,255
2015-07-18T03:18:34.659Z,260
2015-07-18T03:18:53.034Z,267
2015-07-18T03:19:11.597Z,273
2015-07-18T03:19:30.005Z,280
2015-07-18T03:19:48.474Z,286
2015-07-18T03:20:06.927Z,292
2015-07-18T03:20:25.352Z,299
2015-07-18T03:20:43.836Z,307
2015-07-18T03:21:02.258Z,314
2015-07-18T03:21:20.805Z,323
2015-07-18T03:21:39.290Z,330
2015-07-18T03:21:58.025Z,339
2015-07-18T03:22:16.462Z,346
2015-07-18T03:22:34.917Z,355
2015-07-18T03:22:53.574Z,363
2015-07-18T03:23:12.058Z,371
2015-07-18T03:23:30.592Z,380
2015-07-18T03:23:49.045Z,389
2015-07-18T03:24:07.499Z,396
2015-07-18T03:24:25.889Z,403
2015-07-18T03:24:44.578Z,412
2015-07-18T03:25:03.046Z,419
2015-07-18T03:25:21.453Z,426
2015-07-18T03:25:39.986Z,432
2015-07-18T03:25:58.423Z,438
2015-07-18T03:26:17.142Z,445
2015-07-18T03:26:35.676Z,450
2015-07-18T03:26:54.208Z,456
2015-07-18T03:27:12.614Z,461
2015-07-18T03:27:31.208Z,466
2015-07-18T03:27:49.709Z,470
2015-07-18T03:28:08.084Z,473
2015-07-18T03:28:26.474Z,477
2015-07-18T03:28:44.945Z,480
2015-07-18T03:29:03.429Z,483
2015-07-18T03:29:22.070Z,487
2015-07-18T03:29:40.603Z,491
2015-07-18T03:29:59.150Z,495
2015-07-18T03:30:17.916Z,499
2015-07-18T03:30:36.306Z,503
2015-07-18T03:30:54.793Z,508
2015-07-18T03:31:13.371Z,512
2015-07-18T03:31:31.933Z,516
2015-07-18T03:31:50.514Z,520
2015-07-18T03:32:09.092Z,523
2015-07-18T03:32:27.514Z,526
2015-07-18T03:32:46.173Z,531
2015-07-18T03:33:04.595Z,534
2015-07-18T03:33:23.095Z,538
2015-07-18T03:33:41.970Z,541
2015-07-18T03:33:59.752Z,543
2015-07-18T03:34:18.314Z,547
2015-07-18T03:34:36.924Z,550
2015-07-18T03:34:55.504Z,552
2015-07-18T03:35:13.988Z,553
2015-07-18T03:35:32.441Z,556
2015-07-18T03:35:50.881Z,558
2015-07-18T03:36:09.397Z,560
2015-07-18T03:36:28.147Z,562
2015-07-18T03:36:46.600Z,563
2015-07-18T03:37:04.992Z,566
2015-07-18T03:37:23.383Z,568
2015-07-18T03:37:41.945Z,569
2015-07-18T03:38:00.526Z,571
2015-07-18T03:38:19.119Z,572
2015-07-18T03:38:37.776Z,575
2015-07-18T03:38:56.231Z,576
2015-07-18T03:39:14.809Z,577
2015-07-18T03:39:33.496Z,579
2015-07-18T03:39:52.028Z,581
2015-07-18T03:40:10.655Z,583
2015-07-18T03:40:29.108Z,586
2015-07-18T03:40:47.873Z,587
2015-07-18T03:41:06.578Z,589
2015-07-18T03:41:24.422Z,592
2015-07-18T03:41:42.938Z,594
2015-07-18T03:42:01.424Z,596
2015-07-18T03:42:20.018Z,597
2015-07-18T03:42:38.690Z,599
2015-07-18T03:42:57.098Z,601
2015-07-18T03:43:15.848Z,603
2015-07-18T03:43:34.520Z,606
2015-07-18T03:43:52.957Z,608
2015-07-18T03:44:11.755Z,610
2015-07-18T03:44:30.458Z,611
2015-07-18T03:44:48.958Z,611
2015-07-18T03:45:07.399Z,610
2015-07-18T03:45:25.821Z,611
2015-07-18T03:45:44.196Z,610
2015-07-18T03:46:02.931Z,611
2015-07-18T03:46:21.431Z,610
2015-07-18T03:46:39.822Z,610
2015-07-18T03:46:58.197Z,610
2015-07-18T03:47:16.653Z,610
2015-07-18T03:47:35.200Z,610
2015-07-18T03:47:53.809Z,610
2015-07-18T03:48:12.264Z,610
2015-07-18T03:48:30.967Z,610
2015-07-18T03:48:49.327Z,609
2015-07-18T03:49:08.281Z,609
2015-07-18T03:49:26.640Z,609
2015-07-18T03:49:45.218Z,609
2015-07-18T03:50:03.593Z,609
2015-07-18T03:50:22.299Z,609
2015-07-18T03:50:40.861Z,609
2015-07-18T03:50:59.267Z,609
2015-07-18T03:51:17.676Z,609
2015-07-18T03:51:36.191Z,608
2015-07-18T03:51:54.879Z,608
2015-07-18T03:52:13.459Z,608
2015-07-18T03:52:32.006Z,608
2015-07-18T03:52:50.396Z,608
2015-07-18T03:53:08.930Z,608
2015-07-18T03:53:27.336Z,608
2015-07-18T03:53:45.883Z,608
2015-07-18T03:54:04.539Z,608
2015-07-18T03:54:23.228Z,608
2015-07-18T03:54:41.932Z,608
2015-07-18T03:55:00.713Z,607
2015-07-18T03:55:19.590Z,607
2015-07-18T03:55:37.996Z,607
2015-07-18T03:55:56.840Z,607
2015-07-18T03:56:15.374Z,608
2015-07-18T03:56:33.874Z,607
2015-07-18T03:56:52.265Z,607
2015-07-18T03:57:10.843Z,607
2015-07-18T03:57:29.235Z,607
2015-07-18T03:57:47.595Z,607
2015-07-18T03:58:06.110Z,607
2015-07-18T03:58:24.502Z,607
2015-07-18T03:58:43.049Z,607
2015-07-18T03:59:01.565Z,607
2015-07-18T03:59:20.238Z,607
2015-07-18T03:59:39.098Z,607
2015-07-18T03:59:57.379Z,607
2015-07-18T04:00:15.910Z,606
2015-07-18T04:00:34.444Z,607
2015-07-18T04:00:53.084Z,607
2015-07-18T04:01:11.490Z,606
2015-07-18T04:01:29.961Z,606
2015-07-18T04:01:48.727Z,606
2015-07-18T04:02:07.196Z,606
2015-07-18T04:02:25.651Z,606
2015-07-18T04:02:44.041Z,606
2015-07-18T04:03:02.432Z,606
2015-07-18T04:03:20.809Z,606
2015-07-18T04:03:39.246Z,606
2015-07-18T04:03:57.684Z,606
2015-07-18T04:04:16.293Z,606
2015-07-18T04:04:34.858Z,606
2015-07-18T04:04:53.358Z,606
2015-07-18T04:05:11.780Z,606
2015-07-18T04:05:30.282Z,606
2015-07-18T04:05:48.766Z,606
2015-07-18T04:06:07.360Z,606
2015-07-18T04:06:25.799Z,606
2015-07-18T04:06:44.518Z,606
2015-07-18T04:07:02.924Z,606
2015-07-18T04:07:21.643Z,606
2015-07-18T04:07:39.629Z,606
2015-07-18T04:07:58.145Z,606
2015-07-18T04:08:15.551Z,606
2015-07-18T04:08:34.100Z,606
2015-07-18T04:08:52.631Z,606
2015-07-18T04:09:11.116Z,606
2015-07-18T04:09:29.803Z,606
2015-07-18T04:09:48.212Z,607
2015-07-18T04:10:06.805Z,606
2015-07-18T04:10:25.352Z,606
2015-07-18T04:10:43.884Z,606
2015-07-18T04:11:02.306Z,606
2015-07-18T04:11:20.713Z,606
2015-07-18T04:11:39.122Z,606
2015-07-18T04:11:57.731Z,606
2015-07-18T04:12:16.184Z,606
2015-07-18T04:12:34.780Z,606
2015-07-18T04:12:53.233Z,606
2015-07-18T04:13:12.030Z,606
2015-07-18T04:13:30.514Z,606
2015-07-18T04:13:48.890Z,606
2015-07-18T04:14:07.422Z,606
2015-07-18T04:14:26.031Z,606
2015-07-18T04:14:44.392Z,606
2015-07-18T04:15:02.939Z,606
2015-07-18T04:15:21.455Z,606
2015-07-18T04:15:39.879Z,606
2015-07-18T04:15:58.301Z,606
2015-07-18T04:16:16.785Z,606
2015-07-18T04:16:35.363Z,606
2015-07-18T04:16:53.757Z,606
2015-07-18T04:17:12.132Z,606
2015-07-18T04:17:30.022Z,606
2015-07-18T04:17:48.556Z,606
2015-07-18T04:18:06.962Z,606
2015-07-18T04:18:25.509Z,606
2015-07-18T04:18:43.980Z,606
2015-07-18T04:19:02.355Z,606
2015-07-18T04:19:20.886Z,606
2015-07-18T04:19:39.261Z,606
2015-07-18T04:19:57.887Z,606
2015-07-18T04:20:16.481Z,606
2015-07-18T04:20:35.231Z,606
2015-07-18T04:20:53.623Z,606
2015-07-18T04:21:12.123Z,606
2015-07-18T04:21:30.529Z,606
2015-07-18T04:21:49.047Z,606
2015-07-18T04:22:07.672Z,606
2015-07-18T04:22:26.281Z,606
2015-07-18T04:22:44.703Z,606
2015-07-18T04:23:03.175Z,606
2015-07-18T04:23:21.566Z,606
2015-07-18T04:23:40.331Z,606
2015-07-18T04:23:58.754Z,606
2015-07-18T04:24:17.176Z,606
2015-07-18T04:24:35.567Z,606
2015-07-18T04:24:54.084Z,606
2015-07-18T04:25:12.522Z,606
2015-07-18T04:25:30.381Z,606
2015-07-18T04:25:48.162Z,606
2015-07-18T04:26:06.633Z,606
2015-07-18T04:26:25.086Z,606
2015-07-18T04:26:43.743Z,605
2015-07-18T04:27:02.338Z,605